Venango Regional Airport
KFKL : now visible

Airfield :











YOU CAN JOIN US ON...

 
LOGIN :

Register | Disclaimer

   EN    FR    IT 

 









Legend :    VFR   Marginal VFR   IFR   Intensive IFR   Very Intensive IFR
Visi :
Ceiling :
>= 8 km
>= 3000ft
5 to 8 km
1000 to 3000 ft
1500m to 5 km
500 to 1000 ft
800 to 1500m
200 to 500 ft
< 800m
< 200 ft
Symbols :   Thunderstorms  Fog  Heavy snow  Heavy precipitations  Wind > 20 kt






- Airport Elevation : 1540 ft


KFKL - Venango Regional

CURRENT METAR :
  • 080756Z AUTO 23008KT 10SM BKN075 11/10 A2958 RMK AO2 SLP017 T01110100

EXPIRED METARs :
  • 080713Z AUTO 22008KT 10SM FEW006 11/10 A2960 RMK AO2
  • 080656Z AUTO 21009KT 10SM FEW085 11/10 A2962 RMK AO2 RAE23 SLP032 P0001 T01060100
  • 080556Z AUTO 19008KT 10SM RA OVC065 11/10 A2964 RMK AO2 TSE05B32E47 PRESFR SLP035 P0019 60034 T01060100 10144 20106 50011
  • 080553Z AUTO 20008KT 10SM RA OVC060 11/10 A2964 RMK AO2 TSE05B32E47 PRESFR P0018
  • 080538Z AUTO 25006KT 10SM VCTS RA FEW023 OVC060 11/09 A2968 RMK AO2 LTG DSNT S TSE05B32 P0014

TAF KFKL
Valid from the 08 at 08:00 until the 09 at 06:00 UTC


080752Z 0808/0906 25004KT P6SM SCT006
TEMPO 0809/0812 3SM BR BKN007
FM081500 31007KT P6SM BKN015
FM082100 29006KT P6SM SKC



MET'MAP, your aeronautical weather chart ! - Copyright ORBIFLY December 2007 - Disclaimer

ORBIFLY MET'MAP TEAM :

Programming & Development : Alexandra Zaïnal
Concept & original design : Baudouin d'Aumeries
Assistance for programming : Marc-Olivier Méhu
Technical & hardware support : Manuel Goepfert

Contact : metmap@orbifly.com




SOURCES & CREDITS :

   NOAA       Earth
Advisory